sensor_id;sensor_type;location;lat;lon;timestamp;P1;durP1;ratioP1;P2;durP2;ratioP2
33826;SDS011;20128;45.582;5.298;2022-08-14T00:01:58;14.35;;;5.07;;
33826;SDS011;20128;45.582;5.298;2022-08-14T00:04:24;11.10;;;4.78;;
33826;SDS011;20128;45.582;5.298;2022-08-14T00:06:50;11.65;;;5.32;;
33826;SDS011;20128;45.582;5.298;2022-08-14T00:09:16;10.60;;;5.70;;
33826;SDS011;20128;45.582;5.298;2022-08-14T00:11:41;8.75;;;5.30;;
33826;SDS011;20128;45.582;5.298;2022-08-14T00:14:07;11.65;;;5.05;;
33826;SDS011;20128;45.582;5.298;2022-08-14T00:16:33;11.30;;;5.10;;
33826;SDS011;20128;45.582;5.298;2022-08-14T00:18:59;15.43;;;6.30;;
33826;SDS011;20128;45.582;5.298;2022-08-14T00:21:26;9.82;;;5.25;;
33826;SDS011;20128;45.582;5.298;2022-08-14T00:23:52;11.93;;;5.80;;
33826;SDS011;20128;45.582;5.298;2022-08-14T00:26:18;10.82;;;5.80;;
33826;SDS011;20128;45.582;5.298;2022-08-14T00:28:44;14.63;;;5.68;;
33826;SDS011;20128;45.582;5.298;2022-08-14T00:31:10;12.52;;;6.20;;
33826;SDS011;20128;45.582;5.298;2022-08-14T00:33:35;13.88;;;6.00;;
33826;SDS011;20128;45.582;5.298;2022-08-14T00:36:02;10.27;;;5.60;;
33826;SDS011;20128;45.582;5.298;2022-08-14T00:38:28;13.10;;;5.93;;
33826;SDS011;20128;45.582;5.298;2022-08-14T00:40:55;13.13;;;6.68;;
33826;SDS011;20128;45.582;5.298;2022-08-14T00:43:20;17.77;;;6.60;;
33826;SDS011;20128;45.582;5.298;2022-08-14T00:45:46;18.48;;;5.93;;
33826;SDS011;20128;45.582;5.298;2022-08-14T00:48:13;11.93;;;5.50;;
33826;SDS011;20128;45.582;5.298;2022-08-14T00:50:43;16.38;;;7.00;;
33826;SDS011;20128;45.582;5.298;2022-08-14T00:53:09;12.00;;;5.68;;
33826;SDS011;20128;45.582;5.298;2022-08-14T00:55:35;13.60;;;5.90;;
33826;SDS011;20128;45.582;5.298;2022-08-14T00:58:01;14.50;;;6.30;;
33826;SDS011;20128;45.582;5.298;2022-08-14T01:00:46;11.85;;;5.97;;
33826;SDS011;20128;45.582;5.298;2022-08-14T01:03:14;12.88;;;6.70;;
33826;SDS011;20128;45.582;5.298;2022-08-14T01:05:42;18.15;;;6.35;;
33826;SDS011;20128;45.582;5.298;2022-08-14T01:08:16;11.65;;;5.78;;
33826;SDS011;20128;45.582;5.298;2022-08-14T01:10:46;10.03;;;4.93;;
33826;SDS011;20128;45.582;5.298;2022-08-14T01:13:22;12.98;;;6.00;;
33826;SDS011;20128;45.582;5.298;2022-08-14T01:15:51;14.05;;;6.90;;
33826;SDS011;20128;45.582;5.298;2022-08-14T01:18:21;14.20;;;6.60;;
33826;SDS011;20128;45.582;5.298;2022-08-14T01:21:08;13.20;;;6.65;;
33826;SDS011;20128;45.582;5.298;2022-08-14T01:23:43;13.43;;;7.30;;
33826;SDS011;20128;45.582;5.298;2022-08-14T01:26:09;10.00;;;5.50;;
33826;SDS011;20128;45.582;5.298;2022-08-14T01:28:36;16.83;;;6.90;;
33826;SDS011;20128;45.582;5.298;2022-08-14T01:31:10;13.63;;;6.13;;
33826;SDS011;20128;45.582;5.298;2022-08-14T01:33:42;12.43;;;6.32;;
33826;SDS011;20128;45.582;5.298;2022-08-14T01:36:12;19.92;;;6.82;;
33826;SDS011;20128;45.582;5.298;2022-08-14T01:38:41;13.98;;;6.10;;
33826;SDS011;20128;45.582;5.298;2022-08-14T01:41:10;12.75;;;6.38;;
33826;SDS011;20128;45.582;5.298;2022-08-14T01:43:54;15.32;;;6.47;;
33826;SDS011;20128;45.582;5.298;2022-08-14T01:46:25;15.55;;;7.18;;
33826;SDS011;20128;45.582;5.298;2022-08-14T01:48:53;9.60;;;5.90;;
33826;SDS011;20128;45.582;5.298;2022-08-14T01:51:20;13.23;;;7.38;;
33826;SDS011;20128;45.582;5.298;2022-08-14T01:53:50;9.15;;;6.28;;
33826;SDS011;20128;45.582;5.298;2022-08-14T01:56:18;12.98;;;6.05;;
33826;SDS011;20128;45.582;5.298;2022-08-14T01:58:44;12.43;;;6.80;;
33826;SDS011;20128;45.582;5.298;2022-08-14T02:01:13;12.00;;;7.10;;
33826;SDS011;20128;45.582;5.298;2022-08-14T02:03:40;28.27;;;8.32;;
33826;SDS011;20128;45.582;5.298;2022-08-14T02:06:06;15.75;;;8.07;;
33826;SDS011;20128;45.582;5.298;2022-08-14T02:08:32;14.90;;;7.18;;
33826;SDS011;20128;45.582;5.298;2022-08-14T02:11:02;13.48;;;7.35;;
33826;SDS011;20128;45.582;5.298;2022-08-14T02:13:45;13.45;;;7.18;;
33826;SDS011;20128;45.582;5.298;2022-08-14T02:16:12;15.13;;;7.93;;
33826;SDS011;20128;45.582;5.298;2022-08-14T02:18:41;17.00;;;7.22;;
33826;SDS011;20128;45.582;5.298;2022-08-14T02:21:08;16.25;;;8.18;;
33826;SDS011;20128;45.582;5.298;2022-08-14T02:23:34;18.05;;;7.63;;
33826;SDS011;20128;45.582;5.298;2022-08-14T02:26:01;9.73;;;6.82;;
33826;SDS011;20128;45.582;5.298;2022-08-14T02:28:37;9.85;;;6.70;;
33826;SDS011;20128;45.582;5.298;2022-08-14T02:31:03;15.55;;;7.20;;
33826;SDS011;20128;45.582;5.298;2022-08-14T02:33:32;16.33;;;7.32;;
33826;SDS011;20128;45.582;5.298;2022-08-14T02:35:59;15.98;;;7.00;;
33826;SDS011;20128;45.582;5.298;2022-08-14T02:38:26;11.35;;;7.07;;
33826;SDS011;20128;45.582;5.298;2022-08-14T02:40:52;14.32;;;7.65;;
33826;SDS011;20128;45.582;5.298;2022-08-14T02:43:17;17.25;;;8.65;;
33826;SDS011;20128;45.582;5.298;2022-08-14T02:45:45;11.80;;;7.32;;
33826;SDS011;20128;45.582;5.298;2022-08-14T02:48:12;14.55;;;7.85;;
33826;SDS011;20128;45.582;5.298;2022-08-14T02:50:38;16.23;;;7.97;;
33826;SDS011;20128;45.582;5.298;2022-08-14T02:53:06;12.60;;;6.97;;
33826;SDS011;20128;45.582;5.298;2022-08-14T02:55:32;12.70;;;6.93;;
33826;SDS011;20128;45.582;5.298;2022-08-14T02:57:58;19.02;;;8.90;;
33826;SDS011;20128;45.582;5.298;2022-08-14T03:00:24;22.80;;;8.48;;
33826;SDS011;20128;45.582;5.298;2022-08-14T03:02:51;15.40;;;7.18;;
33826;SDS011;20128;45.582;5.298;2022-08-14T03:05:16;17.77;;;8.10;;
33826;SDS011;20128;45.582;5.298;2022-08-14T03:07:43;15.93;;;8.10;;
33826;SDS011;20128;45.582;5.298;2022-08-14T03:10:09;14.95;;;8.32;;
33826;SDS011;20128;45.582;5.298;2022-08-14T03:12:35;16.35;;;8.75;;
33826;SDS011;20128;45.582;5.298;2022-08-14T03:15:02;18.52;;;8.52;;
33826;SDS011;20128;45.582;5.298;2022-08-14T03:17:34;14.27;;;7.72;;
33826;SDS011;20128;45.582;5.298;2022-08-14T03:20:00;16.25;;;8.20;;
33826;SDS011;20128;45.582;5.298;2022-08-14T03:22:27;11.98;;;8.43;;
33826;SDS011;20128;45.582;5.298;2022-08-14T03:24:53;12.02;;;6.85;;
33826;SDS011;20128;45.582;5.298;2022-08-14T03:27:19;14.40;;;7.57;;
33826;SDS011;20128;45.582;5.298;2022-08-14T03:29:44;15.02;;;8.40;;
33826;SDS011;20128;45.582;5.298;2022-08-14T03:32:10;15.77;;;7.75;;
33826;SDS011;20128;45.582;5.298;2022-08-14T03:34:36;11.45;;;7.78;;
33826;SDS011;20128;45.582;5.298;2022-08-14T03:37:02;11.98;;;7.05;;
33826;SDS011;20128;45.582;5.298;2022-08-14T03:39:28;17.38;;;8.45;;
33826;SDS011;20128;45.582;5.298;2022-08-14T03:41:54;14.55;;;7.50;;
33826;SDS011;20128;45.582;5.298;2022-08-14T03:44:21;13.85;;;8.40;;
33826;SDS011;20128;45.582;5.298;2022-08-14T03:46:47;17.85;;;7.82;;
33826;SDS011;20128;45.582;5.298;2022-08-14T03:49:15;14.68;;;8.82;;
33826;SDS011;20128;45.582;5.298;2022-08-14T03:51:46;13.43;;;8.18;;
33826;SDS011;20128;45.582;5.298;2022-08-14T03:54:11;12.43;;;7.50;;
33826;SDS011;20128;45.582;5.298;2022-08-14T03:56:37;12.23;;;7.90;;
33826;SDS011;20128;45.582;5.298;2022-08-14T03:59:08;14.25;;;8.23;;
33826;SDS011;20128;45.582;5.298;2022-08-14T04:01:35;16.92;;;9.07;;
33826;SDS011;20128;45.582;5.298;2022-08-14T04:04:03;12.25;;;8.43;;
33826;SDS011;20128;45.582;5.298;2022-08-14T04:06:34;11.02;;;8.40;;
33826;SDS011;20128;45.582;5.298;2022-08-14T04:09:01;14.10;;;8.73;;
33826;SDS011;20128;45.582;5.298;2022-08-14T04:11:31;13.15;;;8.68;;
33826;SDS011;20128;45.582;5.298;2022-08-14T04:14:00;16.35;;;8.70;;
33826;SDS011;20128;45.582;5.298;2022-08-14T04:16:26;14.48;;;8.70;;
33826;SDS011;20128;45.582;5.298;2022-08-14T04:18:53;13.52;;;8.43;;
33826;SDS011;20128;45.582;5.298;2022-08-14T04:21:21;13.35;;;8.60;;
33826;SDS011;20128;45.582;5.298;2022-08-14T04:23:48;11.95;;;8.13;;
33826;SDS011;20128;45.582;5.298;2022-08-14T04:26:16;15.20;;;8.82;;
33826;SDS011;20128;45.582;5.298;2022-08-14T04:28:46;16.00;;;8.88;;
33826;SDS011;20128;45.582;5.298;2022-08-14T04:31:13;13.43;;;7.63;;
33826;SDS011;20128;45.582;5.298;2022-08-14T04:33:39;20.70;;;8.10;;
33826;SDS011;20128;45.582;5.298;2022-08-14T04:36:06;19.23;;;8.27;;
33826;SDS011;20128;45.582;5.298;2022-08-14T04:38:32;13.18;;;8.15;;
33826;SDS011;20128;45.582;5.298;2022-08-14T04:41:16;15.35;;;8.73;;
33826;SDS011;20128;45.582;5.298;2022-08-14T04:44:00;13.35;;;8.05;;
33826;SDS011;20128;45.582;5.298;2022-08-14T04:46:26;17.63;;;8.38;;
33826;SDS011;20128;45.582;5.298;2022-08-14T04:48:53;14.02;;;8.73;;
33826;SDS011;20128;45.582;5.298;2022-08-14T04:51:19;13.77;;;8.07;;
33826;SDS011;20128;45.582;5.298;2022-08-14T04:53:51;15.98;;;8.85;;
33826;SDS011;20128;45.582;5.298;2022-08-14T04:56:19;14.18;;;8.40;;
33826;SDS011;20128;45.582;5.298;2022-08-14T04:58:50;18.10;;;8.25;;
33826;SDS011;20128;45.582;5.298;2022-08-14T05:01:21;13.60;;;9.25;;
33826;SDS011;20128;45.582;5.298;2022-08-14T05:03:47;14.32;;;7.90;;
33826;SDS011;20128;45.582;5.298;2022-08-14T05:06:13;14.35;;;8.40;;
33826;SDS011;20128;45.582;5.298;2022-08-14T05:08:39;17.90;;;9.00;;
33826;SDS011;20128;45.582;5.298;2022-08-14T05:11:07;13.50;;;8.48;;
33826;SDS011;20128;45.582;5.298;2022-08-14T05:13:34;18.50;;;10.10;;
33826;SDS011;20128;45.582;5.298;2022-08-14T05:16:01;17.58;;;9.15;;
33826;SDS011;20128;45.582;5.298;2022-08-14T05:18:30;14.68;;;9.60;;
33826;SDS011;20128;45.582;5.298;2022-08-14T05:20:58;14.13;;;9.85;;
33826;SDS011;20128;45.582;5.298;2022-08-14T05:23:27;14.25;;;8.80;;
33826;SDS011;20128;45.582;5.298;2022-08-14T05:25:55;17.02;;;8.75;;
33826;SDS011;20128;45.582;5.298;2022-08-14T05:28:26;18.25;;;8.43;;
33826;SDS011;20128;45.582;5.298;2022-08-14T05:30:55;15.52;;;8.60;;
33826;SDS011;20128;45.582;5.298;2022-08-14T05:33:22;17.77;;;7.40;;
33826;SDS011;20128;45.582;5.298;2022-08-14T05:35:50;13.23;;;7.20;;
33826;SDS011;20128;45.582;5.298;2022-08-14T05:38:18;21.88;;;8.15;;
33826;SDS011;20128;45.582;5.298;2022-08-14T05:40:48;15.90;;;8.07;;
33826;SDS011;20128;45.582;5.298;2022-08-14T05:43:14;77.57;;;12.18;;
33826;SDS011;20128;45.582;5.298;2022-08-14T05:45:40;17.67;;;5.82;;
33826;SDS011;20128;45.582;5.298;2022-08-14T05:48:07;22.02;;;6.75;;
33826;SDS011;20128;45.582;5.298;2022-08-14T05:50:37;18.42;;;6.53;;
33826;SDS011;20128;45.582;5.298;2022-08-14T05:53:06;16.98;;;5.05;;
33826;SDS011;20128;45.582;5.298;2022-08-14T05:55:32;20.25;;;5.30;;
33826;SDS011;20128;45.582;5.298;2022-08-14T05:58:00;18.80;;;6.90;;
33826;SDS011;20128;45.582;5.298;2022-08-14T06:00:29;22.60;;;6.68;;
33826;SDS011;20128;45.582;5.298;2022-08-14T06:02:57;18.40;;;5.30;;
33826;SDS011;20128;45.582;5.298;2022-08-14T06:05:24;23.30;;;6.18;;
33826;SDS011;20128;45.582;5.298;2022-08-14T06:07:50;21.42;;;6.90;;
33826;SDS011;20128;45.582;5.298;2022-08-14T06:10:16;17.58;;;6.28;;
33826;SDS011;20128;45.582;5.298;2022-08-14T06:12:42;12.25;;;5.82;;
33826;SDS011;20128;45.582;5.298;2022-08-14T06:15:08;22.10;;;6.60;;
33826;SDS011;20128;45.582;5.298;2022-08-14T06:17:43;14.65;;;6.25;;
33826;SDS011;20128;45.582;5.298;2022-08-14T06:20:11;18.17;;;5.90;;
33826;SDS011;20128;45.582;5.298;2022-08-14T06:22:37;14.98;;;5.60;;
33826;SDS011;20128;45.582;5.298;2022-08-14T06:25:04;16.95;;;5.57;;
33826;SDS011;20128;45.582;5.298;2022-08-14T06:27:37;7.90;;;4.80;;
33826;SDS011;20128;45.582;5.298;2022-08-14T06:30:05;15.02;;;5.50;;
33826;SDS011;20128;45.582;5.298;2022-08-14T06:32:32;12.50;;;4.78;;
33826;SDS011;20128;45.582;5.298;2022-08-14T06:34:58;15.85;;;5.40;;
33826;SDS011;20128;45.582;5.298;2022-08-14T06:37:23;14.00;;;5.20;;
33826;SDS011;20128;45.582;5.298;2022-08-14T06:39:49;20.00;;;6.05;;
33826;SDS011;20128;45.582;5.298;2022-08-14T06:42:14;10.20;;;4.80;;
33826;SDS011;20128;45.582;5.298;2022-08-14T06:44:40;15.50;;;5.53;;
33826;SDS011;20128;45.582;5.298;2022-08-14T06:47:06;13.10;;;5.32;;
33826;SDS011;20128;45.582;5.298;2022-08-14T06:49:32;16.42;;;5.72;;
33826;SDS011;20128;45.582;5.298;2022-08-14T06:51:58;13.27;;;5.68;;
33826;SDS011;20128;45.582;5.298;2022-08-14T06:54:24;15.05;;;5.80;;
33826;SDS011;20128;45.582;5.298;2022-08-14T06:56:50;15.27;;;6.20;;
33826;SDS011;20128;45.582;5.298;2022-08-14T06:59:16;15.70;;;5.97;;
33826;SDS011;20128;45.582;5.298;2022-08-14T07:01:41;17.73;;;6.82;;
33826;SDS011;20128;45.582;5.298;2022-08-14T07:07:10;20.20;;;7.97;;
33826;SDS011;20128;45.582;5.298;2022-08-14T07:09:35;18.55;;;6.45;;
33826;SDS011;20128;45.582;5.298;2022-08-14T07:12:01;21.27;;;6.43;;
33826;SDS011;20128;45.582;5.298;2022-08-14T07:14:27;19.77;;;7.22;;
33826;SDS011;20128;45.582;5.298;2022-08-14T07:16:52;16.20;;;6.15;;
33826;SDS011;20128;45.582;5.298;2022-08-14T07:19:19;23.48;;;6.97;;
33826;SDS011;20128;45.582;5.298;2022-08-14T07:21:44;16.50;;;6.70;;
33826;SDS011;20128;45.582;5.298;2022-08-14T07:24:10;19.90;;;7.00;;
33826;SDS011;20128;45.582;5.298;2022-08-14T07:26:35;14.77;;;6.50;;
33826;SDS011;20128;45.582;5.298;2022-08-14T07:29:01;22.63;;;8.52;;
33826;SDS011;20128;45.582;5.298;2022-08-14T07:31:27;20.98;;;6.72;;
33826;SDS011;20128;45.582;5.298;2022-08-14T07:33:52;16.77;;;6.95;;
33826;SDS011;20128;45.582;5.298;2022-08-14T07:36:18;19.08;;;6.57;;
33826;SDS011;20128;45.582;5.298;2022-08-14T07:38:46;15.27;;;7.22;;
33826;SDS011;20128;45.582;5.298;2022-08-14T07:41:11;17.33;;;6.95;;
33826;SDS011;20128;45.582;5.298;2022-08-14T07:43:37;15.13;;;5.57;;
33826;SDS011;20128;45.582;5.298;2022-08-14T07:46:07;14.52;;;5.88;;
33826;SDS011;20128;45.582;5.298;2022-08-14T07:48:39;13.30;;;6.05;;
33826;SDS011;20128;45.582;5.298;2022-08-14T07:51:05;10.63;;;5.18;;
33826;SDS011;20128;45.582;5.298;2022-08-14T07:53:31;11.27;;;5.32;;
33826;SDS011;20128;45.582;5.298;2022-08-14T07:55:57;15.38;;;5.50;;
33826;SDS011;20128;45.582;5.298;2022-08-14T07:58:23;9.88;;;4.43;;
33826;SDS011;20128;45.582;5.298;2022-08-14T08:00:49;9.80;;;4.50;;
33826;SDS011;20128;45.582;5.298;2022-08-14T08:03:18;14.52;;;4.65;;
33826;SDS011;20128;45.582;5.298;2022-08-14T08:05:45;12.77;;;4.10;;
33826;SDS011;20128;45.582;5.298;2022-08-14T08:08:11;11.50;;;4.15;;
33826;SDS011;20128;45.582;5.298;2022-08-14T08:10:40;7.97;;;3.90;;
33826;SDS011;20128;45.582;5.298;2022-08-14T08:13:13;10.20;;;4.68;;
33826;SDS011;20128;45.582;5.298;2022-08-14T08:15:44;9.75;;;4.28;;
33826;SDS011;20128;45.582;5.298;2022-08-14T08:18:11;9.63;;;4.55;;
33826;SDS011;20128;45.582;5.298;2022-08-14T08:20:43;15.05;;;4.07;;
33826;SDS011;20128;45.582;5.298;2022-08-14T08:23:11;8.77;;;4.15;;
33826;SDS011;20128;45.582;5.298;2022-08-14T08:25:39;7.07;;;3.72;;
33826;SDS011;20128;45.582;5.298;2022-08-14T08:28:08;6.82;;;4.03;;
33826;SDS011;20128;45.582;5.298;2022-08-14T08:30:40;11.10;;;4.00;;
33826;SDS011;20128;45.582;5.298;2022-08-14T08:33:11;8.80;;;3.78;;
33826;SDS011;20128;45.582;5.298;2022-08-14T08:35:37;10.02;;;3.80;;
33826;SDS011;20128;45.582;5.298;2022-08-14T08:38:13;10.80;;;4.25;;
33826;SDS011;20128;45.582;5.298;2022-08-14T08:40:42;7.25;;;4.15;;
33826;SDS011;20128;45.582;5.298;2022-08-14T08:45:43;11.60;;;4.72;;
33826;SDS011;20128;45.582;5.298;2022-08-14T08:48:16;13.18;;;4.13;;
33826;SDS011;20128;45.582;5.298;2022-08-14T08:50:42;7.45;;;3.95;;
33826;SDS011;20128;45.582;5.298;2022-08-14T08:53:08;11.00;;;4.97;;
33826;SDS011;20128;45.582;5.298;2022-08-14T08:55:38;9.57;;;3.50;;
33826;SDS011;20128;45.582;5.298;2022-08-14T08:58:09;10.27;;;3.70;;
33826;SDS011;20128;45.582;5.298;2022-08-14T09:00:41;9.68;;;4.38;;
33826;SDS011;20128;45.582;5.298;2022-08-14T09:03:14;14.43;;;4.00;;
33826;SDS011;20128;45.582;5.298;2022-08-14T09:08:22;7.00;;;3.15;;
33826;SDS011;20128;45.582;5.298;2022-08-14T09:10:50;8.05;;;3.88;;
33826;SDS011;20128;45.582;5.298;2022-08-14T09:13:16;7.90;;;3.40;;
33826;SDS011;20128;45.582;5.298;2022-08-14T09:15:43;9.13;;;3.55;;
33826;SDS011;20128;45.582;5.298;2022-08-14T09:18:11;6.65;;;2.75;;
33826;SDS011;20128;45.582;5.298;2022-08-14T09:20:39;11.27;;;2.13;;
33826;SDS011;20128;45.582;5.298;2022-08-14T09:23:06;3.70;;;1.88;;
33826;SDS011;20128;45.582;5.298;2022-08-14T09:25:33;4.07;;;1.70;;
33826;SDS011;20128;45.582;5.298;2022-08-14T09:27:59;6.38;;;2.40;;
33826;SDS011;20128;45.582;5.298;2022-08-14T09:30:25;3.75;;;1.75;;
33826;SDS011;20128;45.582;5.298;2022-08-14T09:32:58;5.15;;;2.17;;
33826;SDS011;20128;45.582;5.298;2022-08-14T09:47:54;3.03;;;1.50;;
33826;SDS011;20128;45.582;5.298;2022-08-14T09:52:55;4.05;;;2.00;;
33826;SDS011;20128;45.582;5.298;2022-08-14T09:55:26;3.15;;;1.90;;
33826;SDS011;20128;45.582;5.298;2022-08-14T10:00:55;9.02;;;2.55;;
33826;SDS011;20128;45.582;5.298;2022-08-14T10:03:29;12.80;;;2.13;;
33826;SDS011;20128;45.582;5.298;2022-08-14T10:06:11;3.70;;;1.70;;
33826;SDS011;20128;45.582;5.298;2022-08-14T10:09:23;10.93;;;2.20;;
33826;SDS011;20128;45.582;5.298;2022-08-14T10:11:30;4.35;;;2.33;;
33826;SDS011;20128;45.582;5.298;2022-08-14T10:16:44;6.70;;;2.20;;
33826;SDS011;20128;45.582;5.298;2022-08-14T10:19:12;3.90;;;2.08;;
33826;SDS011;20128;45.582;5.298;2022-08-14T10:21:41;2.47;;;1.50;;
33826;SDS011;20128;45.582;5.298;2022-08-14T10:24:10;8.63;;;2.10;;
33826;SDS011;20128;45.582;5.298;2022-08-14T10:26:53;6.95;;;2.03;;
33826;SDS011;20128;45.582;5.298;2022-08-14T10:29:29;5.72;;;1.98;;
33826;SDS011;20128;45.582;5.298;2022-08-14T10:31:57;4.75;;;1.67;;
33826;SDS011;20128;45.582;5.298;2022-08-14T10:34:28;3.65;;;2.08;;
33826;SDS011;20128;45.582;5.298;2022-08-14T10:37:06;3.33;;;1.53;;
33826;SDS011;20128;45.582;5.298;2022-08-14T10:39:37;6.45;;;1.70;;
33826;SDS011;20128;45.582;5.298;2022-08-14T10:44:35;7.63;;;2.30;;
33826;SDS011;20128;45.582;5.298;2022-08-14T10:47:03;4.55;;;1.95;;
33826;SDS011;20128;45.582;5.298;2022-08-14T10:49:33;5.72;;;1.95;;
33826;SDS011;20128;45.582;5.298;2022-08-14T10:52:08;3.65;;;1.73;;
33826;SDS011;20128;45.582;5.298;2022-08-14T10:54:41;3.67;;;1.95;;
33826;SDS011;20128;45.582;5.298;2022-08-14T11:02:30;4.30;;;2.40;;
33826;SDS011;20128;45.582;5.298;2022-08-14T11:07:32;5.22;;;2.25;;
33826;SDS011;20128;45.582;5.298;2022-08-14T11:10:13;5.18;;;2.08;;
33826;SDS011;20128;45.582;5.298;2022-08-14T11:15:10;6.95;;;2.33;;
33826;SDS011;20128;45.582;5.298;2022-08-14T11:17:37;5.88;;;2.42;;
33826;SDS011;20128;45.582;5.298;2022-08-14T11:20:04;4.78;;;2.00;;
33826;SDS011;20128;45.582;5.298;2022-08-14T11:22:32;3.35;;;1.90;;
33826;SDS011;20128;45.582;5.298;2022-08-14T11:25:02;9.70;;;1.88;;
33826;SDS011;20128;45.582;5.298;2022-08-14T11:27:30;4.80;;;1.60;;
33826;SDS011;20128;45.582;5.298;2022-08-14T11:30:08;7.32;;;1.77;;
33826;SDS011;20128;45.582;5.298;2022-08-14T11:32:35;2.80;;;1.63;;
33826;SDS011;20128;45.582;5.298;2022-08-14T11:35:03;5.18;;;1.73;;
33826;SDS011;20128;45.582;5.298;2022-08-14T11:37:30;2.33;;;1.42;;
33826;SDS011;20128;45.582;5.298;2022-08-14T11:40:00;2.80;;;1.80;;
33826;SDS011;20128;45.582;5.298;2022-08-14T11:42:26;4.97;;;2.30;;
33826;SDS011;20128;45.582;5.298;2022-08-14T11:44:56;7.72;;;1.67;;
33826;SDS011;20128;45.582;5.298;2022-08-14T11:47:23;5.25;;;2.53;;
33826;SDS011;20128;45.582;5.298;2022-08-14T11:49:49;5.13;;;2.15;;
33826;SDS011;20128;45.582;5.298;2022-08-14T11:52:15;2.88;;;2.10;;
33826;SDS011;20128;45.582;5.298;2022-08-14T11:54:44;4.97;;;2.30;;
33826;SDS011;20128;45.582;5.298;2022-08-14T11:57:20;4.75;;;3.00;;
33826;SDS011;20128;45.582;5.298;2022-08-14T11:59:46;3.85;;;2.05;;
33826;SDS011;20128;45.582;5.298;2022-08-14T12:02:13;2.13;;;1.67;;
33826;SDS011;20128;45.582;5.298;2022-08-14T12:04:50;4.15;;;1.85;;
33826;SDS011;20128;45.582;5.298;2022-08-14T12:07:17;4.90;;;1.88;;
33826;SDS011;20128;45.582;5.298;2022-08-14T12:09:43;3.13;;;1.80;;
33826;SDS011;20128;45.582;5.298;2022-08-14T12:14:53;3.35;;;2.28;;
33826;SDS011;20128;45.582;5.298;2022-08-14T12:17:22;4.07;;;2.42;;
33826;SDS011;20128;45.582;5.298;2022-08-14T12:19:59;2.70;;;1.92;;
33826;SDS011;20128;45.582;5.298;2022-08-14T12:22:37;2.75;;;1.80;;
33826;SDS011;20128;45.582;5.298;2022-08-14T12:25:08;2.70;;;1.65;;
33826;SDS011;20128;45.582;5.298;2022-08-14T12:27:45;2.83;;;2.20;;
33826;SDS011;20128;45.582;5.298;2022-08-14T12:33:06;6.20;;;2.00;;
33826;SDS011;20128;45.582;5.298;2022-08-14T12:35:54;6.65;;;1.65;;
33826;SDS011;20128;45.582;5.298;2022-08-14T12:38:32;1.92;;;1.42;;
33826;SDS011;20128;45.582;5.298;2022-08-14T12:43:47;3.25;;;1.58;;
33826;SDS011;20128;45.582;5.298;2022-08-14T12:48:48;3.50;;;1.90;;
33826;SDS011;20128;45.582;5.298;2022-08-14T12:51:15;4.55;;;2.08;;
33826;SDS011;20128;45.582;5.298;2022-08-14T12:53:46;4.15;;;2.40;;
33826;SDS011;20128;45.582;5.298;2022-08-14T12:56:15;2.65;;;1.95;;
33826;SDS011;20128;45.582;5.298;2022-08-14T12:58:49;2.80;;;1.80;;
33826;SDS011;20128;45.582;5.298;2022-08-14T13:01:28;2.83;;;1.80;;
33826;SDS011;20128;45.582;5.298;2022-08-14T13:04:09;6.07;;;2.08;;
33826;SDS011;20128;45.582;5.298;2022-08-14T13:06:37;1.83;;;1.70;;
33826;SDS011;20128;45.582;5.298;2022-08-14T13:09:08;2.63;;;1.60;;
33826;SDS011;20128;45.582;5.298;2022-08-14T13:11:37;2.58;;;1.50;;
33826;SDS011;20128;45.582;5.298;2022-08-14T13:14:05;2.17;;;1.85;;
33826;SDS011;20128;45.582;5.298;2022-08-14T13:16:31;3.15;;;2.17;;
33826;SDS011;20128;45.582;5.298;2022-08-14T13:18:57;3.10;;;2.53;;
33826;SDS011;20128;45.582;5.298;2022-08-14T13:21:26;2.13;;;1.80;;
33826;SDS011;20128;45.582;5.298;2022-08-14T13:23:54;2.50;;;1.80;;
33826;SDS011;20128;45.582;5.298;2022-08-14T13:26:23;2.47;;;2.00;;
33826;SDS011;20128;45.582;5.298;2022-08-14T13:28:49;4.90;;;1.98;;
33826;SDS011;20128;45.582;5.298;2022-08-14T13:31:17;2.35;;;2.03;;
33826;SDS011;20128;45.582;5.298;2022-08-14T13:33:47;4.70;;;2.25;;
33826;SDS011;20128;45.582;5.298;2022-08-14T13:36:14;122.90;;;11.55;;
33826;SDS011;20128;45.582;5.298;2022-08-14T13:38:43;11.98;;;2.78;;
33826;SDS011;20128;45.582;5.298;2022-08-14T13:41:14;3.30;;;1.85;;
33826;SDS011;20128;45.582;5.298;2022-08-14T13:43:41;8.43;;;2.42;;
33826;SDS011;20128;45.582;5.298;2022-08-14T13:46:08;8.38;;;2.63;;
33826;SDS011;20128;45.582;5.298;2022-08-14T13:48:34;23.42;;;3.10;;
33826;SDS011;20128;45.582;5.298;2022-08-14T13:51:02;5.50;;;1.98;;
33826;SDS011;20128;45.582;5.298;2022-08-14T13:53:30;4.93;;;2.08;;
33826;SDS011;20128;45.582;5.298;2022-08-14T13:55:59;5.63;;;1.98;;
33826;SDS011;20128;45.582;5.298;2022-08-14T13:58:26;4.40;;;2.50;;
33826;SDS011;20128;45.582;5.298;2022-08-14T14:00:58;4.18;;;2.72;;
33826;SDS011;20128;45.582;5.298;2022-08-14T14:03:24;9.93;;;3.42;;
33826;SDS011;20128;45.582;5.298;2022-08-14T14:05:51;4.72;;;2.75;;
33826;SDS011;20128;45.582;5.298;2022-08-14T14:08:19;5.15;;;3.15;;
33826;SDS011;20128;45.582;5.298;2022-08-14T14:10:46;3.83;;;2.15;;
33826;SDS011;20128;45.582;5.298;2022-08-14T14:13:13;4.38;;;2.40;;
33826;SDS011;20128;45.582;5.298;2022-08-14T14:15:40;7.80;;;2.95;;
33826;SDS011;20128;45.582;5.298;2022-08-14T14:18:07;3.40;;;2.75;;
33826;SDS011;20128;45.582;5.298;2022-08-14T14:20:33;4.93;;;2.80;;
33826;SDS011;20128;45.582;5.298;2022-08-14T14:23:00;7.03;;;2.88;;
33826;SDS011;20128;45.582;5.298;2022-08-14T14:25:26;7.05;;;2.40;;
33826;SDS011;20128;45.582;5.298;2022-08-14T14:27:52;6.38;;;2.45;;
33826;SDS011;20128;45.582;5.298;2022-08-14T14:30:21;3.30;;;2.58;;
33826;SDS011;20128;45.582;5.298;2022-08-14T14:32:50;4.72;;;2.30;;
33826;SDS011;20128;45.582;5.298;2022-08-14T14:35:24;4.38;;;2.20;;
33826;SDS011;20128;45.582;5.298;2022-08-14T14:37:53;4.72;;;2.33;;
33826;SDS011;20128;45.582;5.298;2022-08-14T14:40:24;4.05;;;2.17;;
33826;SDS011;20128;45.582;5.298;2022-08-14T14:42:52;6.35;;;2.30;;
33826;SDS011;20128;45.582;5.298;2022-08-14T14:45:21;7.82;;;2.90;;
33826;SDS011;20128;45.582;5.298;2022-08-14T14:47:48;7.55;;;2.50;;
33826;SDS011;20128;45.582;5.298;2022-08-14T14:50:19;5.93;;;2.30;;
33826;SDS011;20128;45.582;5.298;2022-08-14T14:52:46;8.15;;;2.47;;
33826;SDS011;20128;45.582;5.298;2022-08-14T14:55:13;6.30;;;2.40;;
33826;SDS011;20128;45.582;5.298;2022-08-14T14:57:42;4.93;;;2.20;;
33826;SDS011;20128;45.582;5.298;2022-08-14T15:00:13;6.10;;;1.90;;
33826;SDS011;20128;45.582;5.298;2022-08-14T15:02:42;4.90;;;2.47;;
33826;SDS011;20128;45.582;5.298;2022-08-14T15:05:10;5.07;;;2.30;;
33826;SDS011;20128;45.582;5.298;2022-08-14T15:07:38;8.70;;;2.00;;
33826;SDS011;20128;45.582;5.298;2022-08-14T15:10:06;6.07;;;2.08;;
33826;SDS011;20128;45.582;5.298;2022-08-14T15:12:33;8.60;;;2.50;;
33826;SDS011;20128;45.582;5.298;2022-08-14T15:14:59;5.53;;;2.08;;
33826;SDS011;20128;45.582;5.298;2022-08-14T15:17:25;5.20;;;2.20;;
33826;SDS011;20128;45.582;5.298;2022-08-14T15:19:52;7.03;;;2.13;;
33826;SDS011;20128;45.582;5.298;2022-08-14T15:22:18;6.63;;;2.10;;
33826;SDS011;20128;45.582;5.298;2022-08-14T15:24:44;4.80;;;2.20;;
33826;SDS011;20128;45.582;5.298;2022-08-14T15:27:10;6.32;;;2.20;;
33826;SDS011;20128;45.582;5.298;2022-08-14T15:29:36;8.32;;;2.38;;
33826;SDS011;20128;45.582;5.298;2022-08-14T15:32:07;3.33;;;2.47;;
33826;SDS011;20128;45.582;5.298;2022-08-14T15:34:34;10.52;;;3.13;;
33826;SDS011;20128;45.582;5.298;2022-08-14T15:37:04;7.40;;;3.10;;
33826;SDS011;20128;45.582;5.298;2022-08-14T15:39:34;7.32;;;2.13;;
33826;SDS011;20128;45.582;5.298;2022-08-14T15:42:00;5.07;;;2.67;;